sensor_id;sensor_type;location;lat;lon;timestamp;P1;durP1;ratioP1;P2;durP2;ratioP2
10471;SDS011;5283;48.876;8.962;2023-04-15T00:00:56;5.30;;;3.47;;
10471;SDS011;5283;48.876;8.962;2023-04-15T00:03:24;4.90;;;3.83;;
10471;SDS011;5283;48.876;8.962;2023-04-15T00:05:51;5.70;;;3.57;;
10471;SDS011;5283;48.876;8.962;2023-04-15T00:08:17;6.00;;;3.60;;
10471;SDS011;5283;48.876;8.962;2023-04-15T00:10:45;5.60;;;3.40;;
10471;SDS011;5283;48.876;8.962;2023-04-15T00:13:12;3.73;;;3.13;;
10471;SDS011;5283;48.876;8.962;2023-04-15T00:15:38;6.00;;;3.40;;
10471;SDS011;5283;48.876;8.962;2023-04-15T00:18:05;4.23;;;3.17;;
10471;SDS011;5283;48.876;8.962;2023-04-15T00:20:33;5.20;;;3.23;;
10471;SDS011;5283;48.876;8.962;2023-04-15T00:23:01;7.27;;;3.77;;
10471;SDS011;5283;48.876;8.962;2023-04-15T00:25:28;6.67;;;4.00;;
10471;SDS011;5283;48.876;8.962;2023-04-15T00:27:55;6.27;;;3.87;;
10471;SDS011;5283;48.876;8.962;2023-04-15T00:30:22;5.83;;;3.97;;
10471;SDS011;5283;48.876;8.962;2023-04-15T00:32:49;7.97;;;4.00;;
10471;SDS011;5283;48.876;8.962;2023-04-15T00:35:15;8.47;;;3.60;;
10471;SDS011;5283;48.876;8.962;2023-04-15T00:37:42;5.87;;;3.73;;
10471;SDS011;5283;48.876;8.962;2023-04-15T00:40:11;6.87;;;4.00;;
10471;SDS011;5283;48.876;8.962;2023-04-15T00:42:38;6.23;;;3.90;;
10471;SDS011;5283;48.876;8.962;2023-04-15T00:45:05;7.73;;;4.30;;
10471;SDS011;5283;48.876;8.962;2023-04-15T00:47:34;7.27;;;3.97;;
10471;SDS011;5283;48.876;8.962;2023-04-15T00:50:02;5.87;;;4.07;;
10471;SDS011;5283;48.876;8.962;2023-04-15T00:52:30;5.73;;;4.23;;
10471;SDS011;5283;48.876;8.962;2023-04-15T00:54:57;7.50;;;4.40;;
10471;SDS011;5283;48.876;8.962;2023-04-15T00:57:24;6.50;;;4.00;;
10471;SDS011;5283;48.876;8.962;2023-04-15T00:59:54;7.57;;;4.10;;
10471;SDS011;5283;48.876;8.962;2023-04-15T01:02:22;4.87;;;3.93;;
10471;SDS011;5283;48.876;8.962;2023-04-15T01:04:49;6.80;;;4.10;;
10471;SDS011;5283;48.876;8.962;2023-04-15T01:07:15;7.07;;;3.90;;
10471;SDS011;5283;48.876;8.962;2023-04-15T01:09:42;8.10;;;4.13;;
10471;SDS011;5283;48.876;8.962;2023-04-15T01:12:11;6.93;;;4.13;;
10471;SDS011;5283;48.876;8.962;2023-04-15T01:14:39;7.17;;;4.00;;
10471;SDS011;5283;48.876;8.962;2023-04-15T01:17:06;5.60;;;3.73;;
10471;SDS011;5283;48.876;8.962;2023-04-15T01:19:32;5.40;;;3.90;;
10471;SDS011;5283;48.876;8.962;2023-04-15T01:22:01;8.20;;;3.80;;
10471;SDS011;5283;48.876;8.962;2023-04-15T01:24:28;8.07;;;4.10;;
10471;SDS011;5283;48.876;8.962;2023-04-15T01:26:56;5.40;;;4.27;;
10471;SDS011;5283;48.876;8.962;2023-04-15T01:29:23;8.13;;;3.93;;
10471;SDS011;5283;48.876;8.962;2023-04-15T01:31:50;7.93;;;3.90;;
10471;SDS011;5283;48.876;8.962;2023-04-15T01:34:18;9.33;;;4.00;;
10471;SDS011;5283;48.876;8.962;2023-04-15T01:36:46;6.47;;;3.53;;
10471;SDS011;5283;48.876;8.962;2023-04-15T01:39:13;7.77;;;3.93;;
10471;SDS011;5283;48.876;8.962;2023-04-15T01:41:40;7.07;;;4.00;;
10471;SDS011;5283;48.876;8.962;2023-04-15T01:44:07;3.90;;;3.50;;
10471;SDS011;5283;48.876;8.962;2023-04-15T01:46:34;9.40;;;4.53;;
10471;SDS011;5283;48.876;8.962;2023-04-15T01:49:02;7.50;;;4.57;;
10471;SDS011;5283;48.876;8.962;2023-04-15T01:51:28;6.17;;;3.93;;
10471;SDS011;5283;48.876;8.962;2023-04-15T01:53:55;4.90;;;4.10;;
10471;SDS011;5283;48.876;8.962;2023-04-15T01:56:22;6.50;;;3.60;;
10471;SDS011;5283;48.876;8.962;2023-04-15T01:58:49;5.37;;;3.83;;
10471;SDS011;5283;48.876;8.962;2023-04-15T02:01:16;7.50;;;3.77;;
10471;SDS011;5283;48.876;8.962;2023-04-15T02:03:44;5.73;;;4.07;;
10471;SDS011;5283;48.876;8.962;2023-04-15T02:06:12;4.00;;;3.47;;
10471;SDS011;5283;48.876;8.962;2023-04-15T02:08:39;4.40;;;4.00;;
10471;SDS011;5283;48.876;8.962;2023-04-15T02:11:06;7.73;;;4.43;;
10471;SDS011;5283;48.876;8.962;2023-04-15T02:13:33;13.00;;;5.27;;
10471;SDS011;5283;48.876;8.962;2023-04-15T02:16:00;5.93;;;4.63;;
10471;SDS011;5283;48.876;8.962;2023-04-15T02:18:26;4.80;;;4.30;;
10471;SDS011;5283;48.876;8.962;2023-04-15T02:20:53;6.10;;;4.10;;
10471;SDS011;5283;48.876;8.962;2023-04-15T02:23:20;7.40;;;4.43;;
10471;SDS011;5283;48.876;8.962;2023-04-15T02:25:47;6.03;;;4.20;;
10471;SDS011;5283;48.876;8.962;2023-04-15T02:28:13;6.97;;;4.47;;
10471;SDS011;5283;48.876;8.962;2023-04-15T02:30:40;8.60;;;4.50;;
10471;SDS011;5283;48.876;8.962;2023-04-15T02:33:07;6.23;;;3.90;;
10471;SDS011;5283;48.876;8.962;2023-04-15T02:35:34;7.77;;;3.80;;
10471;SDS011;5283;48.876;8.962;2023-04-15T02:38:04;5.63;;;3.40;;
10471;SDS011;5283;48.876;8.962;2023-04-15T02:40:30;5.17;;;3.83;;
10471;SDS011;5283;48.876;8.962;2023-04-15T02:42:57;5.80;;;3.70;;
10471;SDS011;5283;48.876;8.962;2023-04-15T02:45:25;7.40;;;4.23;;
10471;SDS011;5283;48.876;8.962;2023-04-15T02:47:53;6.70;;;3.30;;
10471;SDS011;5283;48.876;8.962;2023-04-15T02:50:20;8.00;;;4.20;;
10471;SDS011;5283;48.876;8.962;2023-04-15T02:52:48;8.13;;;4.03;;
10471;SDS011;5283;48.876;8.962;2023-04-15T02:55:15;6.13;;;3.70;;
10471;SDS011;5283;48.876;8.962;2023-04-15T02:57:43;6.20;;;4.20;;
10471;SDS011;5283;48.876;8.962;2023-04-15T03:00:09;9.30;;;4.00;;
10471;SDS011;5283;48.876;8.962;2023-04-15T03:02:37;7.10;;;4.40;;
10471;SDS011;5283;48.876;8.962;2023-04-15T03:05:04;5.50;;;3.53;;
10471;SDS011;5283;48.876;8.962;2023-04-15T03:07:32;8.33;;;3.97;;
10471;SDS011;5283;48.876;8.962;2023-04-15T03:09:58;5.13;;;3.77;;
10471;SDS011;5283;48.876;8.962;2023-04-15T03:12:25;7.63;;;4.33;;
10471;SDS011;5283;48.876;8.962;2023-04-15T03:14:51;6.47;;;3.93;;
10471;SDS011;5283;48.876;8.962;2023-04-15T03:17:18;5.53;;;3.90;;
10471;SDS011;5283;48.876;8.962;2023-04-15T03:19:45;6.70;;;4.00;;
10471;SDS011;5283;48.876;8.962;2023-04-15T03:22:11;11.03;;;4.30;;
10471;SDS011;5283;48.876;8.962;2023-04-15T03:24:38;9.37;;;3.67;;
10471;SDS011;5283;48.876;8.962;2023-04-15T03:27:05;4.67;;;4.00;;
10471;SDS011;5283;48.876;8.962;2023-04-15T03:29:33;5.97;;;3.93;;
10471;SDS011;5283;48.876;8.962;2023-04-15T03:31:59;4.87;;;3.93;;
10471;SDS011;5283;48.876;8.962;2023-04-15T03:34:26;7.13;;;4.00;;
10471;SDS011;5283;48.876;8.962;2023-04-15T03:36:52;7.03;;;4.13;;
10471;SDS011;5283;48.876;8.962;2023-04-15T03:39:19;7.27;;;3.83;;
10471;SDS011;5283;48.876;8.962;2023-04-15T03:41:46;4.27;;;3.30;;
10471;SDS011;5283;48.876;8.962;2023-04-15T03:44:13;7.63;;;3.63;;
10471;SDS011;5283;48.876;8.962;2023-04-15T03:46:39;4.73;;;3.50;;
10471;SDS011;5283;48.876;8.962;2023-04-15T03:49:06;11.17;;;4.00;;
10471;SDS011;5283;48.876;8.962;2023-04-15T03:51:33;9.03;;;4.20;;
10471;SDS011;5283;48.876;8.962;2023-04-15T03:54:00;7.07;;;3.70;;
10471;SDS011;5283;48.876;8.962;2023-04-15T03:56:27;8.00;;;4.33;;
10471;SDS011;5283;48.876;8.962;2023-04-15T03:58:54;7.40;;;4.37;;
10471;SDS011;5283;48.876;8.962;2023-04-15T04:01:21;5.50;;;4.10;;
10471;SDS011;5283;48.876;8.962;2023-04-15T04:03:48;7.77;;;4.30;;
10471;SDS011;5283;48.876;8.962;2023-04-15T04:06:14;6.50;;;4.50;;
10471;SDS011;5283;48.876;8.962;2023-04-15T04:08:41;9.07;;;4.37;;
10471;SDS011;5283;48.876;8.962;2023-04-15T04:11:08;5.60;;;3.97;;
10471;SDS011;5283;48.876;8.962;2023-04-15T04:13:35;8.90;;;4.43;;
10471;SDS011;5283;48.876;8.962;2023-04-15T04:16:02;4.83;;;4.00;;
10471;SDS011;5283;48.876;8.962;2023-04-15T04:18:32;8.13;;;4.57;;
10471;SDS011;5283;48.876;8.962;2023-04-15T04:20:59;6.80;;;4.03;;
10471;SDS011;5283;48.876;8.962;2023-04-15T04:23:26;9.13;;;4.33;;
10471;SDS011;5283;48.876;8.962;2023-04-15T04:25:52;7.27;;;4.23;;
10471;SDS011;5283;48.876;8.962;2023-04-15T04:28:19;6.80;;;4.10;;
10471;SDS011;5283;48.876;8.962;2023-04-15T04:30:45;9.50;;;4.20;;
10471;SDS011;5283;48.876;8.962;2023-04-15T04:33:12;6.77;;;4.30;;
10471;SDS011;5283;48.876;8.962;2023-04-15T04:35:39;9.33;;;5.13;;
10471;SDS011;5283;48.876;8.962;2023-04-15T04:38:05;11.10;;;4.37;;
10471;SDS011;5283;48.876;8.962;2023-04-15T04:40:32;6.70;;;4.37;;
10471;SDS011;5283;48.876;8.962;2023-04-15T04:42:59;6.33;;;4.17;;
10471;SDS011;5283;48.876;8.962;2023-04-15T04:45:26;9.40;;;4.17;;
10471;SDS011;5283;48.876;8.962;2023-04-15T04:47:52;6.80;;;4.20;;
10471;SDS011;5283;48.876;8.962;2023-04-15T04:50:19;8.67;;;4.40;;
10471;SDS011;5283;48.876;8.962;2023-04-15T04:52:46;8.53;;;4.10;;
10471;SDS011;5283;48.876;8.962;2023-04-15T04:55:12;6.20;;;4.30;;
10471;SDS011;5283;48.876;8.962;2023-04-15T04:57:39;9.37;;;4.07;;
10471;SDS011;5283;48.876;8.962;2023-04-15T05:00:06;5.80;;;3.93;;
10471;SDS011;5283;48.876;8.962;2023-04-15T05:02:34;6.67;;;4.40;;
10471;SDS011;5283;48.876;8.962;2023-04-15T05:05:01;6.37;;;4.03;;
10471;SDS011;5283;48.876;8.962;2023-04-15T05:07:27;5.90;;;3.90;;
10471;SDS011;5283;48.876;8.962;2023-04-15T05:09:54;7.13;;;4.50;;
10471;SDS011;5283;48.876;8.962;2023-04-15T05:12:21;6.53;;;3.97;;
10471;SDS011;5283;48.876;8.962;2023-04-15T05:14:47;9.17;;;3.47;;
10471;SDS011;5283;48.876;8.962;2023-04-15T05:17:14;7.80;;;4.13;;
10471;SDS011;5283;48.876;8.962;2023-04-15T05:19:41;9.33;;;4.60;;
10471;SDS011;5283;48.876;8.962;2023-04-15T05:22:07;6.30;;;4.07;;
10471;SDS011;5283;48.876;8.962;2023-04-15T05:24:34;7.67;;;4.40;;
10471;SDS011;5283;48.876;8.962;2023-04-15T05:27:00;6.83;;;3.83;;
10471;SDS011;5283;48.876;8.962;2023-04-15T05:29:27;7.70;;;3.77;;
10471;SDS011;5283;48.876;8.962;2023-04-15T05:31:54;4.63;;;3.37;;
10471;SDS011;5283;48.876;8.962;2023-04-15T05:34:21;3.83;;;3.13;;
10471;SDS011;5283;48.876;8.962;2023-04-15T05:36:48;5.07;;;2.80;;
10471;SDS011;5283;48.876;8.962;2023-04-15T05:39:15;3.60;;;2.47;;
10471;SDS011;5283;48.876;8.962;2023-04-15T05:41:41;5.17;;;2.80;;
10471;SDS011;5283;48.876;8.962;2023-04-15T05:44:08;4.53;;;2.43;;
10471;SDS011;5283;48.876;8.962;2023-04-15T05:46:35;3.67;;;2.40;;
10471;SDS011;5283;48.876;8.962;2023-04-15T05:49:01;4.03;;;2.50;;
10471;SDS011;5283;48.876;8.962;2023-04-15T05:51:28;6.87;;;2.60;;
10471;SDS011;5283;48.876;8.962;2023-04-15T05:53:54;4.03;;;2.17;;
10471;SDS011;5283;48.876;8.962;2023-04-15T05:56:21;4.13;;;2.23;;
10471;SDS011;5283;48.876;8.962;2023-04-15T05:58:48;2.77;;;1.90;;
10471;SDS011;5283;48.876;8.962;2023-04-15T06:01:15;3.80;;;1.90;;
10471;SDS011;5283;48.876;8.962;2023-04-15T06:03:42;3.53;;;2.03;;
10471;SDS011;5283;48.876;8.962;2023-04-15T06:06:09;2.90;;;2.20;;
10471;SDS011;5283;48.876;8.962;2023-04-15T06:08:35;4.47;;;2.20;;
10471;SDS011;5283;48.876;8.962;2023-04-15T06:11:02;7.53;;;2.30;;
10471;SDS011;5283;48.876;8.962;2023-04-15T06:13:29;2.30;;;2.03;;
10471;SDS011;5283;48.876;8.962;2023-04-15T06:15:56;3.80;;;2.33;;
10471;SDS011;5283;48.876;8.962;2023-04-15T06:18:22;4.53;;;2.50;;
10471;SDS011;5283;48.876;8.962;2023-04-15T06:20:49;5.03;;;2.40;;
10471;SDS011;5283;48.876;8.962;2023-04-15T06:23:16;4.37;;;2.33;;
10471;SDS011;5283;48.876;8.962;2023-04-15T06:25:43;4.37;;;2.47;;
10471;SDS011;5283;48.876;8.962;2023-04-15T06:28:10;4.23;;;2.60;;
10471;SDS011;5283;48.876;8.962;2023-04-15T06:30:36;4.07;;;2.73;;
10471;SDS011;5283;48.876;8.962;2023-04-15T06:33:04;3.13;;;2.10;;
10471;SDS011;5283;48.876;8.962;2023-04-15T06:35:31;4.30;;;2.20;;
10471;SDS011;5283;48.876;8.962;2023-04-15T06:37:57;4.87;;;2.20;;
10471;SDS011;5283;48.876;8.962;2023-04-15T06:40:24;4.60;;;2.50;;
10471;SDS011;5283;48.876;8.962;2023-04-15T06:42:51;5.07;;;2.40;;
10471;SDS011;5283;48.876;8.962;2023-04-15T06:45:17;3.70;;;2.10;;
10471;SDS011;5283;48.876;8.962;2023-04-15T06:47:44;3.13;;;2.20;;
10471;SDS011;5283;48.876;8.962;2023-04-15T06:50:11;5.77;;;2.33;;
10471;SDS011;5283;48.876;8.962;2023-04-15T06:52:37;5.03;;;2.03;;
10471;SDS011;5283;48.876;8.962;2023-04-15T06:55:04;3.27;;;2.40;;
10471;SDS011;5283;48.876;8.962;2023-04-15T06:57:32;3.67;;;2.77;;
10471;SDS011;5283;48.876;8.962;2023-04-15T07:00:00;4.37;;;2.80;;
10471;SDS011;5283;48.876;8.962;2023-04-15T07:02:27;3.77;;;2.50;;
10471;SDS011;5283;48.876;8.962;2023-04-15T07:04:54;3.13;;;2.53;;
10471;SDS011;5283;48.876;8.962;2023-04-15T07:07:22;5.57;;;2.73;;
10471;SDS011;5283;48.876;8.962;2023-04-15T07:09:48;3.73;;;2.43;;
10471;SDS011;5283;48.876;8.962;2023-04-15T07:12:15;5.93;;;3.37;;
10471;SDS011;5283;48.876;8.962;2023-04-15T07:14:42;6.07;;;3.47;;
10471;SDS011;5283;48.876;8.962;2023-04-15T07:17:08;5.40;;;2.93;;
10471;SDS011;5283;48.876;8.962;2023-04-15T07:19:35;4.97;;;3.53;;
10471;SDS011;5283;48.876;8.962;2023-04-15T07:22:02;5.90;;;3.30;;
10471;SDS011;5283;48.876;8.962;2023-04-15T07:24:29;4.77;;;2.90;;
10471;SDS011;5283;48.876;8.962;2023-04-15T07:26:56;3.70;;;2.80;;
10471;SDS011;5283;48.876;8.962;2023-04-15T07:29:24;4.43;;;2.73;;
10471;SDS011;5283;48.876;8.962;2023-04-15T07:31:52;4.07;;;2.40;;
10471;SDS011;5283;48.876;8.962;2023-04-15T07:34:18;5.30;;;2.90;;
10471;SDS011;5283;48.876;8.962;2023-04-15T07:36:46;3.40;;;2.70;;
10471;SDS011;5283;48.876;8.962;2023-04-15T07:39:15;3.97;;;2.50;;
10471;SDS011;5283;48.876;8.962;2023-04-15T07:41:45;4.33;;;2.70;;
10471;SDS011;5283;48.876;8.962;2023-04-15T07:44:11;3.37;;;2.30;;
10471;SDS011;5283;48.876;8.962;2023-04-15T07:46:38;5.97;;;2.77;;
10471;SDS011;5283;48.876;8.962;2023-04-15T07:49:05;5.03;;;2.57;;
10471;SDS011;5283;48.876;8.962;2023-04-15T07:51:32;4.37;;;2.73;;
10471;SDS011;5283;48.876;8.962;2023-04-15T07:53:59;5.80;;;2.80;;
10471;SDS011;5283;48.876;8.962;2023-04-15T07:56:25;4.80;;;2.70;;
10471;SDS011;5283;48.876;8.962;2023-04-15T07:58:52;5.70;;;3.03;;
10471;SDS011;5283;48.876;8.962;2023-04-15T08:01:19;5.03;;;2.70;;
10471;SDS011;5283;48.876;8.962;2023-04-15T08:03:46;6.27;;;2.77;;
10471;SDS011;5283;48.876;8.962;2023-04-15T08:06:13;5.00;;;2.73;;
10471;SDS011;5283;48.876;8.962;2023-04-15T08:08:40;6.80;;;2.90;;
10471;SDS011;5283;48.876;8.962;2023-04-15T08:11:07;3.70;;;2.33;;
10471;SDS011;5283;48.876;8.962;2023-04-15T08:13:34;5.43;;;2.50;;
10471;SDS011;5283;48.876;8.962;2023-04-15T08:18:47;3.80;;;2.67;;
10471;SDS011;5283;48.876;8.962;2023-04-15T08:21:15;5.10;;;2.60;;
10471;SDS011;5283;48.876;8.962;2023-04-15T08:23:43;4.77;;;2.60;;
10471;SDS011;5283;48.876;8.962;2023-04-15T08:26:11;4.93;;;2.60;;
10471;SDS011;5283;48.876;8.962;2023-04-15T08:28:38;4.93;;;2.47;;
10471;SDS011;5283;48.876;8.962;2023-04-15T08:31:06;2.47;;;2.10;;
10471;SDS011;5283;48.876;8.962;2023-04-15T08:33:34;4.27;;;2.23;;
10471;SDS011;5283;48.876;8.962;2023-04-15T08:36:01;5.07;;;2.60;;
10471;SDS011;5283;48.876;8.962;2023-04-15T08:38:28;4.07;;;2.30;;
10471;SDS011;5283;48.876;8.962;2023-04-15T08:40:55;4.57;;;2.60;;
10471;SDS011;5283;48.876;8.962;2023-04-15T08:43:30;2.83;;;2.17;;
10471;SDS011;5283;48.876;8.962;2023-04-15T08:46:03;5.17;;;2.47;;
10471;SDS011;5283;48.876;8.962;2023-04-15T08:48:32;4.80;;;2.60;;
10471;SDS011;5283;48.876;8.962;2023-04-15T08:51:00;5.37;;;2.90;;
10471;SDS011;5283;48.876;8.962;2023-04-15T08:53:28;7.57;;;3.17;;
10471;SDS011;5283;48.876;8.962;2023-04-15T08:55:56;3.97;;;2.67;;
10471;SDS011;5283;48.876;8.962;2023-04-15T08:58:27;3.93;;;2.50;;
10471;SDS011;5283;48.876;8.962;2023-04-15T09:00:55;4.07;;;2.50;;
10471;SDS011;5283;48.876;8.962;2023-04-15T09:03:22;6.30;;;3.27;;
10471;SDS011;5283;48.876;8.962;2023-04-15T09:05:49;4.50;;;2.60;;
10471;SDS011;5283;48.876;8.962;2023-04-15T09:08:18;4.00;;;2.70;;
10471;SDS011;5283;48.876;8.962;2023-04-15T09:10:45;2.60;;;2.10;;
10471;SDS011;5283;48.876;8.962;2023-04-15T09:13:11;2.73;;;2.10;;
10471;SDS011;5283;48.876;8.962;2023-04-15T09:15:39;4.67;;;2.20;;
10471;SDS011;5283;48.876;8.962;2023-04-15T09:18:05;3.20;;;2.20;;
10471;SDS011;5283;48.876;8.962;2023-04-15T09:20:41;4.43;;;2.00;;
10471;SDS011;5283;48.876;8.962;2023-04-15T09:23:12;5.63;;;2.60;;
10471;SDS011;5283;48.876;8.962;2023-04-15T09:25:40;4.20;;;2.10;;
10471;SDS011;5283;48.876;8.962;2023-04-15T09:28:07;5.00;;;2.10;;
10471;SDS011;5283;48.876;8.962;2023-04-15T09:30:35;2.47;;;2.00;;
10471;SDS011;5283;48.876;8.962;2023-04-15T09:33:06;3.90;;;2.17;;
10471;SDS011;5283;48.876;8.962;2023-04-15T09:35:33;2.70;;;2.27;;
10471;SDS011;5283;48.876;8.962;2023-04-15T09:38:06;3.60;;;2.30;;
10471;SDS011;5283;48.876;8.962;2023-04-15T09:40:36;4.27;;;2.60;;
10471;SDS011;5283;48.876;8.962;2023-04-15T09:43:07;4.20;;;2.40;;
10471;SDS011;5283;48.876;8.962;2023-04-15T09:45:35;4.40;;;2.50;;
10471;SDS011;5283;48.876;8.962;2023-04-15T09:48:21;3.80;;;2.40;;
10471;SDS011;5283;48.876;8.962;2023-04-15T09:50:50;5.63;;;2.70;;
10471;SDS011;5283;48.876;8.962;2023-04-15T09:53:19;2.60;;;2.17;;
10471;SDS011;5283;48.876;8.962;2023-04-15T09:55:51;4.50;;;2.80;;
10471;SDS011;5283;48.876;8.962;2023-04-15T09:58:23;4.50;;;2.83;;
10471;SDS011;5283;48.876;8.962;2023-04-15T10:00:52;5.13;;;2.77;;
10471;SDS011;5283;48.876;8.962;2023-04-15T10:03:28;4.37;;;2.43;;
10471;SDS011;5283;48.876;8.962;2023-04-15T10:05:57;2.67;;;2.03;;
10471;SDS011;5283;48.876;8.962;2023-04-15T10:08:29;4.57;;;2.50;;
10471;SDS011;5283;48.876;8.962;2023-04-15T10:10:58;4.57;;;2.60;;
10471;SDS011;5283;48.876;8.962;2023-04-15T10:13:28;3.03;;;1.53;;
10471;SDS011;5283;48.876;8.962;2023-04-15T10:15:58;3.93;;;1.67;;
10471;SDS011;5283;48.876;8.962;2023-04-15T10:18:27;4.20;;;1.80;;
10471;SDS011;5283;48.876;8.962;2023-04-15T10:20:54;3.17;;;1.97;;
10471;SDS011;5283;48.876;8.962;2023-04-15T10:23:21;4.47;;;1.57;;
10471;SDS011;5283;48.876;8.962;2023-04-15T10:25:48;3.03;;;1.57;;
10471;SDS011;5283;48.876;8.962;2023-04-15T10:28:17;3.47;;;2.07;;
10471;SDS011;5283;48.876;8.962;2023-04-15T10:30:45;5.33;;;1.77;;
10471;SDS011;5283;48.876;8.962;2023-04-15T10:33:13;2.13;;;1.80;;
10471;SDS011;5283;48.876;8.962;2023-04-15T10:35:41;5.07;;;2.10;;
10471;SDS011;5283;48.876;8.962;2023-04-15T10:41:23;4.23;;;2.23;;
10471;SDS011;5283;48.876;8.962;2023-04-15T10:43:55;5.00;;;2.40;;
10471;SDS011;5283;48.876;8.962;2023-04-15T10:46:36;4.10;;;2.20;;
10471;SDS011;5283;48.876;8.962;2023-04-15T10:49:23;3.40;;;2.30;;
10471;SDS011;5283;48.876;8.962;2023-04-15T10:51:52;6.40;;;2.97;;
10471;SDS011;5283;48.876;8.962;2023-04-15T10:57:06;4.30;;;2.70;;
10471;SDS011;5283;48.876;8.962;2023-04-15T10:59:36;4.67;;;2.77;;
10471;SDS011;5283;48.876;8.962;2023-04-15T11:05:20;5.90;;;2.47;;
10471;SDS011;5283;48.876;8.962;2023-04-15T11:07:49;4.57;;;2.77;;
10471;SDS011;5283;48.876;8.962;2023-04-15T11:12:52;4.53;;;2.60;;
10471;SDS011;5283;48.876;8.962;2023-04-15T11:15:32;6.20;;;2.60;;
10471;SDS011;5283;48.876;8.962;2023-04-15T11:18:10;4.97;;;2.40;;
10471;SDS011;5283;48.876;8.962;2023-04-15T11:20:41;7.10;;;3.00;;
10471;SDS011;5283;48.876;8.962;2023-04-15T11:23:10;6.13;;;2.80;;
10471;SDS011;5283;48.876;8.962;2023-04-15T11:25:37;4.90;;;3.00;;
10471;SDS011;5283;48.876;8.962;2023-04-15T11:28:03;7.70;;;3.70;;
10471;SDS011;5283;48.876;8.962;2023-04-15T11:30:31;6.40;;;3.20;;
10471;SDS011;5283;48.876;8.962;2023-04-15T11:33:00;5.93;;;3.27;;
10471;SDS011;5283;48.876;8.962;2023-04-15T11:35:31;4.90;;;3.27;;
10471;SDS011;5283;48.876;8.962;2023-04-15T11:38:01;4.23;;;3.17;;
10471;SDS011;5283;48.876;8.962;2023-04-15T11:40:33;6.00;;;3.80;;
10471;SDS011;5283;48.876;8.962;2023-04-15T11:48:21;4.37;;;3.10;;
10471;SDS011;5283;48.876;8.962;2023-04-15T11:50:59;5.67;;;3.27;;
10471;SDS011;5283;48.876;8.962;2023-04-15T11:53:40;4.93;;;3.47;;
10471;SDS011;5283;48.876;8.962;2023-04-15T11:56:16;5.17;;;3.37;;
10471;SDS011;5283;48.876;8.962;2023-04-15T11:58:43;5.17;;;3.27;;
10471;SDS011;5283;48.876;8.962;2023-04-15T12:01:11;6.60;;;3.27;;
10471;SDS011;5283;48.876;8.962;2023-04-15T12:03:39;5.40;;;3.30;;
10471;SDS011;5283;48.876;8.962;2023-04-15T12:11:37;5.53;;;3.87;;
10471;SDS011;5283;48.876;8.962;2023-04-15T12:16:57;6.70;;;3.70;;
10471;SDS011;5283;48.876;8.962;2023-04-15T12:19:28;4.83;;;3.70;;
10471;SDS011;5283;48.876;8.962;2023-04-15T12:21:58;2.73;;;2.40;;
10471;SDS011;5283;48.876;8.962;2023-04-15T12:24:27;4.87;;;3.07;;
10471;SDS011;5283;48.876;8.962;2023-04-15T12:26:58;3.93;;;2.73;;
10471;SDS011;5283;48.876;8.962;2023-04-15T12:29:31;4.03;;;2.73;;
10471;SDS011;5283;48.876;8.962;2023-04-15T12:32:04;4.47;;;3.20;;
10471;SDS011;5283;48.876;8.962;2023-04-15T12:34:51;3.10;;;2.80;;
10471;SDS011;5283;48.876;8.962;2023-04-15T12:37:19;3.23;;;2.53;;
10471;SDS011;5283;48.876;8.962;2023-04-15T12:39:47;4.07;;;3.20;;
10471;SDS011;5283;48.876;8.962;2023-04-15T12:42:14;5.83;;;3.50;;
10471;SDS011;5283;48.876;8.962;2023-04-15T12:44:42;3.70;;;2.90;;
10471;SDS011;5283;48.876;8.962;2023-04-15T12:47:09;3.40;;;2.60;;
10471;SDS011;5283;48.876;8.962;2023-04-15T12:49:37;3.13;;;2.30;;
10471;SDS011;5283;48.876;8.962;2023-04-15T12:52:04;3.33;;;2.30;;
10471;SDS011;5283;48.876;8.962;2023-04-15T12:54:31;3.20;;;2.13;;
10471;SDS011;5283;48.876;8.962;2023-04-15T12:56:58;3.23;;;2.10;;
10471;SDS011;5283;48.876;8.962;2023-04-15T12:59:26;2.40;;;2.00;;
10471;SDS011;5283;48.876;8.962;2023-04-15T13:01:54;3.77;;;2.13;;
10471;SDS011;5283;48.876;8.962;2023-04-15T13:04:20;3.90;;;2.20;;
10471;SDS011;5283;48.876;8.962;2023-04-15T13:06:47;3.17;;;2.10;;
10471;SDS011;5283;48.876;8.962;2023-04-15T13:09:14;2.50;;;1.90;;
10471;SDS011;5283;48.876;8.962;2023-04-15T13:11:41;3.50;;;1.80;;
10471;SDS011;5283;48.876;8.962;2023-04-15T13:14:08;3.23;;;1.90;;
10471;SDS011;5283;48.876;8.962;2023-04-15T13:16:36;2.33;;;1.90;;
10471;SDS011;5283;48.876;8.962;2023-04-15T13:19:03;2.73;;;1.43;;
10471;SDS011;5283;48.876;8.962;2023-04-15T13:21:30;2.67;;;1.47;;
10471;SDS011;5283;48.876;8.962;2023-04-15T13:24:00;3.30;;;2.00;;
10471;SDS011;5283;48.876;8.962;2023-04-15T13:26:27;2.00;;;1.77;;
10471;SDS011;5283;48.876;8.962;2023-04-15T13:28:54;2.87;;;1.77;;
10471;SDS011;5283;48.876;8.962;2023-04-15T13:31:21;3.10;;;1.90;;
10471;SDS011;5283;48.876;8.962;2023-04-15T13:33:47;4.63;;;1.97;;
10471;SDS011;5283;48.876;8.962;2023-04-15T13:36:14;3.80;;;2.07;;
10471;SDS011;5283;48.876;8.962;2023-04-15T13:38:41;2.17;;;1.40;;
10471;SDS011;5283;48.876;8.962;2023-04-15T13:41:08;1.27;;;1.03;;
10471;SDS011;5283;48.876;8.962;2023-04-15T13:43:34;2.93;;;1.70;;
10471;SDS011;5283;48.876;8.962;2023-04-15T13:46:01;2.67;;;1.50;;
10471;SDS011;5283;48.876;8.962;2023-04-15T13:48:28;1.77;;;1.30;;
10471;SDS011;5283;48.876;8.962;2023-04-15T13:50:55;4.27;;;1.73;;
10471;SDS011;5283;48.876;8.962;2023-04-15T13:53:23;1.67;;;1.43;;
10471;SDS011;5283;48.876;8.962;2023-04-15T13:55:49;1.80;;;1.70;;
10471;SDS011;5283;48.876;8.962;2023-04-15T13:58:16;1.73;;;1.63;;
10471;SDS011;5283;48.876;8.962;2023-04-15T14:00:43;1.70;;;1.47;;
10471;SDS011;5283;48.876;8.962;2023-04-15T14:03:09;2.60;;;2.00;;
10471;SDS011;5283;48.876;8.962;2023-04-15T14:05:36;4.50;;;1.90;;
10471;SDS011;5283;48.876;8.962;2023-04-15T14:08:03;3.50;;;1.90;;
10471;SDS011;5283;48.876;8.962;2023-04-15T14:10:29;3.13;;;1.70;;
10471;SDS011;5283;48.876;8.962;2023-04-15T14:12:56;2.63;;;1.73;;
10471;SDS011;5283;48.876;8.962;2023-04-15T14:15:23;1.70;;;1.60;;
10471;SDS011;5283;48.876;8.962;2023-04-15T14:17:49;4.00;;;1.83;;
10471;SDS011;5283;48.876;8.962;2023-04-15T14:20:16;1.83;;;1.67;;
10471;SDS011;5283;48.876;8.962;2023-04-15T14:22:43;4.73;;;1.90;;
10471;SDS011;5283;48.876;8.962;2023-04-15T14:25:10;2.23;;;1.83;;
10471;SDS011;5283;48.876;8.962;2023-04-15T14:27:38;2.43;;;1.80;;
10471;SDS011;5283;48.876;8.962;2023-04-15T14:30:05;2.83;;;2.00;;
10471;SDS011;5283;48.876;8.962;2023-04-15T14:32:32;2.93;;;1.87;;
10471;SDS011;5283;48.876;8.962;2023-04-15T14:34:59;2.90;;;1.80;;
10471;SDS011;5283;48.876;8.962;2023-04-15T14:37:26;2.80;;;1.80;;
10471;SDS011;5283;48.876;8.962;2023-04-15T14:39:52;2.90;;;1.80;;
10471;SDS011;5283;48.876;8.962;2023-04-15T14:42:19;3.87;;;2.23;;
10471;SDS011;5283;48.876;8.962;2023-04-15T14:44:46;7.80;;;4.13;;
10471;SDS011;5283;48.876;8.962;2023-04-15T14:47:12;2.37;;;2.17;;
10471;SDS011;5283;48.876;8.962;2023-04-15T14:49:39;2.50;;;2.23;;
10471;SDS011;5283;48.876;8.962;2023-04-15T14:52:05;3.57;;;2.70;;
10471;SDS011;5283;48.876;8.962;2023-04-15T14:54:32;2.43;;;2.20;;
10471;SDS011;5283;48.876;8.962;2023-04-15T14:56:59;2.90;;;2.00;;
10471;SDS011;5283;48.876;8.962;2023-04-15T14:59:27;5.63;;;4.00;;
10471;SDS011;5283;48.876;8.962;2023-04-15T15:01:53;8.90;;;4.70;;
10471;SDS011;5283;48.876;8.962;2023-04-15T15:04:20;3.23;;;2.40;;
10471;SDS011;5283;48.876;8.962;2023-04-15T15:06:47;2.87;;;2.20;;
10471;SDS011;5283;48.876;8.962;2023-04-15T15:09:14;2.30;;;2.10;;
10471;SDS011;5283;48.876;8.962;2023-04-15T15:11:40;2.70;;;2.03;;
10471;SDS011;5283;48.876;8.962;2023-04-15T15:14:07;2.07;;;1.70;;
10471;SDS011;5283;48.876;8.962;2023-04-15T15:16:34;2.23;;;1.47;;
10471;SDS011;5283;48.876;8.962;2023-04-15T15:19:00;3.43;;;1.43;;
10471;SDS011;5283;48.876;8.962;2023-04-15T15:21:27;2.30;;;1.60;;
10471;SDS011;5283;48.876;8.962;2023-04-15T15:23:54;1.73;;;1.50;;
10471;SDS011;5283;48.876;8.962;2023-04-15T15:26:21;1.60;;;1.50;;
10471;SDS011;5283;48.876;8.962;2023-04-15T15:28:48;4.13;;;1.50;;
10471;SDS011;5283;48.876;8.962;2023-04-15T15:31:15;2.37;;;1.50;;